sensor_id;sensor_type;location;lat;lon;timestamp;P1;durP1;ratioP1;P2;durP2;ratioP2
17917;SDS011;9084;50.956;3.106;2022-08-19T00:00:36;18.23;;;16.52;;
17917;SDS011;9084;50.956;3.106;2022-08-19T00:03:05;17.55;;;15.75;;
17917;SDS011;9084;50.956;3.106;2022-08-19T00:05:34;17.70;;;16.15;;
17917;SDS011;9084;50.956;3.106;2022-08-19T00:08:00;18.08;;;16.30;;
17917;SDS011;9084;50.956;3.106;2022-08-19T00:10:26;18.17;;;16.30;;
17917;SDS011;9084;50.956;3.106;2022-08-19T00:12:54;17.58;;;16.05;;
17917;SDS011;9084;50.956;3.106;2022-08-19T00:15:24;18.52;;;16.65;;
17917;SDS011;9084;50.956;3.106;2022-08-19T00:17:50;19.10;;;16.05;;
17917;SDS011;9084;50.956;3.106;2022-08-19T00:20:20;17.33;;;15.63;;
17917;SDS011;9084;50.956;3.106;2022-08-19T00:22:47;17.83;;;16.00;;
17917;SDS011;9084;50.956;3.106;2022-08-19T00:25:14;17.88;;;15.55;;
17917;SDS011;9084;50.956;3.106;2022-08-19T00:27:40;18.48;;;15.63;;
17917;SDS011;9084;50.956;3.106;2022-08-19T00:30:08;17.98;;;15.82;;
17917;SDS011;9084;50.956;3.106;2022-08-19T00:32:35;18.30;;;15.15;;
17917;SDS011;9084;50.956;3.106;2022-08-19T00:35:01;17.27;;;15.57;;
17917;SDS011;9084;50.956;3.106;2022-08-19T00:37:30;18.10;;;16.40;;
17917;SDS011;9084;50.956;3.106;2022-08-19T00:39:56;17.58;;;15.88;;
17917;SDS011;9084;50.956;3.106;2022-08-19T00:42:21;17.05;;;15.02;;
17917;SDS011;9084;50.956;3.106;2022-08-19T00:44:48;16.08;;;14.23;;
17917;SDS011;9084;50.956;3.106;2022-08-19T00:47:15;16.17;;;14.27;;
17917;SDS011;9084;50.956;3.106;2022-08-19T00:49:43;16.15;;;14.55;;
17917;SDS011;9084;50.956;3.106;2022-08-19T00:52:26;17.65;;;14.75;;
17917;SDS011;9084;50.956;3.106;2022-08-19T00:54:57;17.13;;;13.80;;
17917;SDS011;9084;50.956;3.106;2022-08-19T00:57:31;15.52;;;13.90;;
17917;SDS011;9084;50.956;3.106;2022-08-19T01:00:00;15.20;;;13.73;;
17917;SDS011;9084;50.956;3.106;2022-08-19T01:02:29;16.45;;;14.23;;
17917;SDS011;9084;50.956;3.106;2022-08-19T01:04:57;16.67;;;14.00;;
17917;SDS011;9084;50.956;3.106;2022-08-19T01:07:32;15.38;;;13.90;;
17917;SDS011;9084;50.956;3.106;2022-08-19T01:10:02;17.08;;;15.45;;
17917;SDS011;9084;50.956;3.106;2022-08-19T01:12:33;15.18;;;13.52;;
17917;SDS011;9084;50.956;3.106;2022-08-19T01:14:59;17.52;;;14.25;;
17917;SDS011;9084;50.956;3.106;2022-08-19T01:17:27;18.85;;;14.80;;
17917;SDS011;9084;50.956;3.106;2022-08-19T01:19:53;15.77;;;14.27;;
17917;SDS011;9084;50.956;3.106;2022-08-19T01:22:25;16.23;;;14.63;;
17917;SDS011;9084;50.956;3.106;2022-08-19T01:24:55;19.02;;;14.48;;
17917;SDS011;9084;50.956;3.106;2022-08-19T01:27:22;17.42;;;14.55;;
17917;SDS011;9084;50.956;3.106;2022-08-19T01:29:48;16.00;;;13.60;;
17917;SDS011;9084;50.956;3.106;2022-08-19T01:32:16;16.95;;;13.30;;
17917;SDS011;9084;50.956;3.106;2022-08-19T01:34:44;15.27;;;13.90;;
17917;SDS011;9084;50.956;3.106;2022-08-19T01:37:12;14.93;;;13.07;;
17917;SDS011;9084;50.956;3.106;2022-08-19T01:39:39;17.35;;;15.75;;
17917;SDS011;9084;50.956;3.106;2022-08-19T01:42:06;15.77;;;14.20;;
17917;SDS011;9084;50.956;3.106;2022-08-19T01:44:36;15.52;;;14.07;;
17917;SDS011;9084;50.956;3.106;2022-08-19T01:47:03;14.77;;;13.13;;
17917;SDS011;9084;50.956;3.106;2022-08-19T01:49:32;15.00;;;13.43;;
17917;SDS011;9084;50.956;3.106;2022-08-19T01:51:59;14.43;;;13.02;;
17917;SDS011;9084;50.956;3.106;2022-08-19T01:54:26;14.55;;;13.20;;
17917;SDS011;9084;50.956;3.106;2022-08-19T01:56:58;15.38;;;12.80;;
17917;SDS011;9084;50.956;3.106;2022-08-19T01:59:28;16.13;;;13.80;;
17917;SDS011;9084;50.956;3.106;2022-08-19T02:01:58;13.52;;;12.13;;
17917;SDS011;9084;50.956;3.106;2022-08-19T02:04:23;12.32;;;10.82;;
17917;SDS011;9084;50.956;3.106;2022-08-19T02:06:54;11.90;;;10.75;;
17917;SDS011;9084;50.956;3.106;2022-08-19T02:09:22;12.60;;;11.35;;
17917;SDS011;9084;50.956;3.106;2022-08-19T02:11:48;12.88;;;11.40;;
17917;SDS011;9084;50.956;3.106;2022-08-19T02:14:14;13.48;;;11.25;;
17917;SDS011;9084;50.956;3.106;2022-08-19T02:16:45;12.23;;;11.00;;
17917;SDS011;9084;50.956;3.106;2022-08-19T02:19:11;12.20;;;10.68;;
17917;SDS011;9084;50.956;3.106;2022-08-19T02:21:39;13.77;;;10.52;;
17917;SDS011;9084;50.956;3.106;2022-08-19T02:24:05;11.85;;;10.60;;
17917;SDS011;9084;50.956;3.106;2022-08-19T02:26:34;12.55;;;10.15;;
17917;SDS011;9084;50.956;3.106;2022-08-19T02:28:59;12.98;;;11.63;;
17917;SDS011;9084;50.956;3.106;2022-08-19T02:31:27;13.30;;;10.40;;
17917;SDS011;9084;50.956;3.106;2022-08-19T02:33:59;11.98;;;10.88;;
17917;SDS011;9084;50.956;3.106;2022-08-19T02:36:28;12.82;;;11.48;;
17917;SDS011;9084;50.956;3.106;2022-08-19T02:38:55;12.05;;;10.82;;
17917;SDS011;9084;50.956;3.106;2022-08-19T02:41:24;11.23;;;10.23;;
17917;SDS011;9084;50.956;3.106;2022-08-19T02:43:52;12.80;;;10.40;;
17917;SDS011;9084;50.956;3.106;2022-08-19T02:46:23;15.43;;;10.40;;
17917;SDS011;9084;50.956;3.106;2022-08-19T02:48:52;10.60;;;9.50;;
17917;SDS011;9084;50.956;3.106;2022-08-19T02:51:21;11.65;;;9.98;;
17917;SDS011;9084;50.956;3.106;2022-08-19T02:53:50;10.85;;;9.43;;
17917;SDS011;9084;50.956;3.106;2022-08-19T02:56:16;10.77;;;9.75;;
17917;SDS011;9084;50.956;3.106;2022-08-19T02:58:43;12.45;;;9.43;;
17917;SDS011;9084;50.956;3.106;2022-08-19T03:01:18;10.95;;;9.93;;
17917;SDS011;9084;50.956;3.106;2022-08-19T03:03:52;11.60;;;9.73;;
17917;SDS011;9084;50.956;3.106;2022-08-19T03:06:21;9.32;;;8.50;;
17917;SDS011;9084;50.956;3.106;2022-08-19T03:08:48;10.48;;;9.38;;
17917;SDS011;9084;50.956;3.106;2022-08-19T03:11:16;12.23;;;10.20;;
17917;SDS011;9084;50.956;3.106;2022-08-19T03:13:55;10.75;;;9.65;;
17917;SDS011;9084;50.956;3.106;2022-08-19T03:16:22;10.57;;;9.48;;
17917;SDS011;9084;50.956;3.106;2022-08-19T03:18:50;11.48;;;9.23;;
17917;SDS011;9084;50.956;3.106;2022-08-19T03:21:19;9.55;;;8.57;;
17917;SDS011;9084;50.956;3.106;2022-08-19T03:23:47;9.52;;;8.63;;
17917;SDS011;9084;50.956;3.106;2022-08-19T03:26:21;10.32;;;9.13;;
17917;SDS011;9084;50.956;3.106;2022-08-19T03:28:47;9.48;;;8.30;;
17917;SDS011;9084;50.956;3.106;2022-08-19T03:31:15;9.13;;;8.38;;
17917;SDS011;9084;50.956;3.106;2022-08-19T03:33:53;10.10;;;8.50;;
17917;SDS011;9084;50.956;3.106;2022-08-19T03:36:22;10.05;;;9.00;;
17917;SDS011;9084;50.956;3.106;2022-08-19T03:38:54;9.40;;;8.50;;
17917;SDS011;9084;50.956;3.106;2022-08-19T03:41:25;9.85;;;8.52;;
17917;SDS011;9084;50.956;3.106;2022-08-19T03:43:53;9.60;;;7.88;;
17917;SDS011;9084;50.956;3.106;2022-08-19T03:46:24;10.90;;;9.00;;
17917;SDS011;9084;50.956;3.106;2022-08-19T03:48:52;9.07;;;8.05;;
17917;SDS011;9084;50.956;3.106;2022-08-19T03:51:23;10.45;;;7.78;;
17917;SDS011;9084;50.956;3.106;2022-08-19T03:53:52;7.97;;;7.07;;
17917;SDS011;9084;50.956;3.106;2022-08-19T03:56:22;9.90;;;7.82;;
17917;SDS011;9084;50.956;3.106;2022-08-19T03:58:51;9.88;;;7.47;;
17917;SDS011;9084;50.956;3.106;2022-08-19T04:01:21;10.90;;;7.65;;
17917;SDS011;9084;50.956;3.106;2022-08-19T04:03:49;11.02;;;7.43;;
17917;SDS011;9084;50.956;3.106;2022-08-19T04:06:16;9.07;;;8.13;;
17917;SDS011;9084;50.956;3.106;2022-08-19T04:08:51;12.60;;;8.82;;
17917;SDS011;9084;50.956;3.106;2022-08-19T04:11:25;12.82;;;8.52;;
17917;SDS011;9084;50.956;3.106;2022-08-19T04:13:58;9.15;;;7.32;;
17917;SDS011;9084;50.956;3.106;2022-08-19T04:16:27;12.38;;;8.18;;
17917;SDS011;9084;50.956;3.106;2022-08-19T04:18:54;10.35;;;7.50;;
17917;SDS011;9084;50.956;3.106;2022-08-19T04:21:25;11.20;;;8.38;;
17917;SDS011;9084;50.956;3.106;2022-08-19T04:23:54;10.57;;;8.00;;
17917;SDS011;9084;50.956;3.106;2022-08-19T04:26:26;10.13;;;7.68;;
17917;SDS011;9084;50.956;3.106;2022-08-19T04:28:55;9.55;;;8.10;;
17917;SDS011;9084;50.956;3.106;2022-08-19T04:31:22;11.32;;;7.85;;
17917;SDS011;9084;50.956;3.106;2022-08-19T04:33:53;11.15;;;7.22;;
17917;SDS011;9084;50.956;3.106;2022-08-19T04:36:22;9.32;;;7.82;;
17917;SDS011;9084;50.956;3.106;2022-08-19T04:38:53;12.07;;;7.65;;
17917;SDS011;9084;50.956;3.106;2022-08-19T04:41:20;9.90;;;7.97;;
17917;SDS011;9084;50.956;3.106;2022-08-19T04:44:07;12.88;;;7.90;;
17917;SDS011;9084;50.956;3.106;2022-08-19T04:46:34;8.55;;;7.72;;
17917;SDS011;9084;50.956;3.106;2022-08-19T04:49:03;11.60;;;7.45;;
17917;SDS011;9084;50.956;3.106;2022-08-19T04:51:30;11.45;;;7.40;;
17917;SDS011;9084;50.956;3.106;2022-08-19T04:54:00;9.40;;;7.90;;
17917;SDS011;9084;50.956;3.106;2022-08-19T04:56:29;11.68;;;7.78;;
17917;SDS011;9084;50.956;3.106;2022-08-19T04:58:57;11.02;;;7.78;;
17917;SDS011;9084;50.956;3.106;2022-08-19T05:01:28;10.77;;;8.40;;
17917;SDS011;9084;50.956;3.106;2022-08-19T05:03:57;10.05;;;7.75;;
17917;SDS011;9084;50.956;3.106;2022-08-19T05:06:26;9.20;;;7.78;;
17917;SDS011;9084;50.956;3.106;2022-08-19T05:08:57;10.10;;;7.93;;
17917;SDS011;9084;50.956;3.106;2022-08-19T05:11:24;11.57;;;7.82;;
17917;SDS011;9084;50.956;3.106;2022-08-19T05:13:51;8.82;;;7.97;;
17917;SDS011;9084;50.956;3.106;2022-08-19T05:16:20;10.60;;;7.40;;
17917;SDS011;9084;50.956;3.106;2022-08-19T05:18:49;10.52;;;7.60;;
17917;SDS011;9084;50.956;3.106;2022-08-19T05:21:34;10.65;;;8.32;;
17917;SDS011;9084;50.956;3.106;2022-08-19T05:24:22;9.80;;;8.65;;
17917;SDS011;9084;50.956;3.106;2022-08-19T05:26:52;8.70;;;7.70;;
17917;SDS011;9084;50.956;3.106;2022-08-19T05:29:24;9.20;;;8.10;;
17917;SDS011;9084;50.956;3.106;2022-08-19T05:31:54;9.73;;;7.47;;
17917;SDS011;9084;50.956;3.106;2022-08-19T05:34:23;11.73;;;8.38;;
17917;SDS011;9084;50.956;3.106;2022-08-19T05:36:54;9.00;;;8.00;;
17917;SDS011;9084;50.956;3.106;2022-08-19T05:39:25;11.43;;;7.75;;
17917;SDS011;9084;50.956;3.106;2022-08-19T05:41:55;13.40;;;7.53;;
17917;SDS011;9084;50.956;3.106;2022-08-19T05:44:27;8.55;;;7.35;;
17917;SDS011;9084;50.956;3.106;2022-08-19T05:46:58;8.40;;;6.78;;
17917;SDS011;9084;50.956;3.106;2022-08-19T05:49:26;9.23;;;7.50;;
17917;SDS011;9084;50.956;3.106;2022-08-19T05:51:53;12.25;;;7.63;;
17917;SDS011;9084;50.956;3.106;2022-08-19T05:54:22;7.13;;;6.40;;
17917;SDS011;9084;50.956;3.106;2022-08-19T05:56:53;10.02;;;7.32;;
17917;SDS011;9084;50.956;3.106;2022-08-19T05:59:22;9.88;;;7.57;;
17917;SDS011;9084;50.956;3.106;2022-08-19T06:01:53;15.27;;;8.43;;
17917;SDS011;9084;50.956;3.106;2022-08-19T06:04:22;8.60;;;7.20;;
17917;SDS011;9084;50.956;3.106;2022-08-19T06:06:50;7.43;;;6.57;;
17917;SDS011;9084;50.956;3.106;2022-08-19T06:09:17;7.53;;;6.82;;
17917;SDS011;9084;50.956;3.106;2022-08-19T06:14:16;13.15;;;6.90;;
17917;SDS011;9084;50.956;3.106;2022-08-19T06:16:48;9.07;;;6.47;;
17917;SDS011;9084;50.956;3.106;2022-08-19T06:19:17;7.53;;;6.20;;
17917;SDS011;9084;50.956;3.106;2022-08-19T06:21:50;12.65;;;6.70;;
17917;SDS011;9084;50.956;3.106;2022-08-19T06:24:18;7.07;;;6.28;;
17917;SDS011;9084;50.956;3.106;2022-08-19T06:26:48;6.93;;;6.32;;
17917;SDS011;9084;50.956;3.106;2022-08-19T06:29:16;9.18;;;6.00;;
17917;SDS011;9084;50.956;3.106;2022-08-19T06:31:44;11.50;;;6.97;;
17917;SDS011;9084;50.956;3.106;2022-08-19T06:34:12;7.90;;;5.50;;
17917;SDS011;9084;50.956;3.106;2022-08-19T06:36:40;16.60;;;8.07;;
17917;SDS011;9084;50.956;3.106;2022-08-19T06:39:13;9.73;;;6.07;;
17917;SDS011;9084;50.956;3.106;2022-08-19T06:41:46;8.48;;;6.75;;
17917;SDS011;9084;50.956;3.106;2022-08-19T06:44:20;6.80;;;6.20;;
17917;SDS011;9084;50.956;3.106;2022-08-19T06:46:50;9.57;;;6.22;;
17917;SDS011;9084;50.956;3.106;2022-08-19T06:49:16;6.80;;;5.80;;
17917;SDS011;9084;50.956;3.106;2022-08-19T06:51:45;9.05;;;6.43;;
17917;SDS011;9084;50.956;3.106;2022-08-19T06:54:14;6.28;;;5.68;;
17917;SDS011;9084;50.956;3.106;2022-08-19T06:56:44;6.30;;;5.50;;
17917;SDS011;9084;50.956;3.106;2022-08-19T06:59:12;7.60;;;6.40;;
17917;SDS011;9084;50.956;3.106;2022-08-19T07:01:40;9.32;;;5.93;;
17917;SDS011;9084;50.956;3.106;2022-08-19T07:04:14;10.73;;;7.05;;
17917;SDS011;9084;50.956;3.106;2022-08-19T07:06:41;11.60;;;6.30;;
17917;SDS011;9084;50.956;3.106;2022-08-19T07:09:12;8.73;;;6.45;;
17917;SDS011;9084;50.956;3.106;2022-08-19T07:11:43;7.70;;;6.15;;
17917;SDS011;9084;50.956;3.106;2022-08-19T07:14:13;10.07;;;6.22;;
17917;SDS011;9084;50.956;3.106;2022-08-19T07:16:42;8.07;;;5.70;;
17917;SDS011;9084;50.956;3.106;2022-08-19T07:19:11;5.82;;;5.10;;
17917;SDS011;9084;50.956;3.106;2022-08-19T07:21:38;6.47;;;4.90;;
17917;SDS011;9084;50.956;3.106;2022-08-19T07:24:04;5.50;;;4.95;;
17917;SDS011;9084;50.956;3.106;2022-08-19T07:26:35;6.38;;;5.50;;
17917;SDS011;9084;50.956;3.106;2022-08-19T07:29:04;4.93;;;4.45;;
17917;SDS011;9084;50.956;3.106;2022-08-19T07:31:31;5.13;;;4.63;;
17917;SDS011;9084;50.956;3.106;2022-08-19T07:34:02;5.32;;;4.80;;
17917;SDS011;9084;50.956;3.106;2022-08-19T07:36:32;5.50;;;4.88;;
17917;SDS011;9084;50.956;3.106;2022-08-19T07:39:00;7.43;;;4.95;;
17917;SDS011;9084;50.956;3.106;2022-08-19T07:41:30;5.57;;;4.32;;
17917;SDS011;9084;50.956;3.106;2022-08-19T07:43:57;4.60;;;3.88;;
17917;SDS011;9084;50.956;3.106;2022-08-19T07:46:26;3.70;;;3.38;;
17917;SDS011;9084;50.956;3.106;2022-08-19T07:48:53;4.07;;;3.60;;
17917;SDS011;9084;50.956;3.106;2022-08-19T07:51:19;4.00;;;3.25;;
17917;SDS011;9084;50.956;3.106;2022-08-19T07:53:47;3.25;;;2.95;;
17917;SDS011;9084;50.956;3.106;2022-08-19T07:56:18;3.47;;;2.90;;
17917;SDS011;9084;50.956;3.106;2022-08-19T07:58:48;4.85;;;3.38;;
17917;SDS011;9084;50.956;3.106;2022-08-19T08:01:18;3.35;;;3.00;;
17917;SDS011;9084;50.956;3.106;2022-08-19T08:03:47;3.85;;;3.10;;
17917;SDS011;9084;50.956;3.106;2022-08-19T08:06:32;4.88;;;3.22;;
17917;SDS011;9084;50.956;3.106;2022-08-19T08:09:17;3.20;;;2.90;;
17917;SDS011;9084;50.956;3.106;2022-08-19T08:11:54;3.13;;;2.83;;
17917;SDS011;9084;50.956;3.106;2022-08-19T08:14:36;3.80;;;3.45;;
17917;SDS011;9084;50.956;3.106;2022-08-19T08:17:14;3.10;;;2.60;;
17917;SDS011;9084;50.956;3.106;2022-08-19T08:19:43;2.55;;;2.30;;
17917;SDS011;9084;50.956;3.106;2022-08-19T08:22:09;6.13;;;2.58;;
17917;SDS011;9084;50.956;3.106;2022-08-19T08:25:09;3.53;;;2.50;;
17917;SDS011;9084;50.956;3.106;2022-08-19T08:27:41;3.05;;;2.40;;
17917;SDS011;9084;50.956;3.106;2022-08-19T08:30:10;1.80;;;1.70;;
17917;SDS011;9084;50.956;3.106;2022-08-19T08:32:38;2.25;;;2.03;;
17917;SDS011;9084;50.956;3.106;2022-08-19T08:35:07;3.72;;;2.10;;
17917;SDS011;9084;50.956;3.106;2022-08-19T08:37:36;3.63;;;2.00;;
17917;SDS011;9084;50.956;3.106;2022-08-19T08:40:09;2.50;;;1.60;;
17917;SDS011;9084;50.956;3.106;2022-08-19T08:45:29;1.58;;;1.33;;
17917;SDS011;9084;50.956;3.106;2022-08-19T08:47:58;4.00;;;1.50;;
17917;SDS011;9084;50.956;3.106;2022-08-19T08:50:33;0.82;;;0.70;;
17917;SDS011;9084;50.956;3.106;2022-08-19T08:53:05;2.97;;;0.70;;
17917;SDS011;9084;50.956;3.106;2022-08-19T08:55:35;0.85;;;0.52;;
17917;SDS011;9084;50.956;3.106;2022-08-19T08:58:06;1.73;;;0.70;;
17917;SDS011;9084;50.956;3.106;2022-08-19T09:00:39;1.23;;;0.80;;
17917;SDS011;9084;50.956;3.106;2022-08-19T09:03:10;0.68;;;0.68;;
17917;SDS011;9084;50.956;3.106;2022-08-19T09:06:02;1.20;;;0.80;;
17917;SDS011;9084;50.956;3.106;2022-08-19T09:14:07;1.08;;;0.90;;
17917;SDS011;9084;50.956;3.106;2022-08-19T09:16:43;1.75;;;0.82;;
17917;SDS011;9084;50.956;3.106;2022-08-19T09:19:09;1.55;;;1.02;;
17917;SDS011;9084;50.956;3.106;2022-08-19T09:21:35;1.08;;;0.77;;
17917;SDS011;9084;50.956;3.106;2022-08-19T09:24:02;0.98;;;0.70;;
17917;SDS011;9084;50.956;3.106;2022-08-19T09:26:29;2.88;;;0.80;;
17917;SDS011;9084;50.956;3.106;2022-08-19T09:28:59;3.33;;;0.90;;
17917;SDS011;9084;50.956;3.106;2022-08-19T09:31:27;1.77;;;0.70;;
17917;SDS011;9084;50.956;3.106;2022-08-19T09:33:54;1.17;;;0.80;;
17917;SDS011;9084;50.956;3.106;2022-08-19T09:36:26;1.90;;;0.68;;
17917;SDS011;9084;50.956;3.106;2022-08-19T09:38:57;2.13;;;0.80;;
17917;SDS011;9084;50.956;3.106;2022-08-19T09:41:27;1.15;;;0.85;;
17917;SDS011;9084;50.956;3.106;2022-08-19T09:43:55;1.10;;;1.00;;
17917;SDS011;9084;50.956;3.106;2022-08-19T09:46:24;1.15;;;0.82;;
17917;SDS011;9084;50.956;3.106;2022-08-19T09:48:52;0.80;;;0.73;;
17917;SDS011;9084;50.956;3.106;2022-08-19T09:51:20;1.08;;;0.80;;
17917;SDS011;9084;50.956;3.106;2022-08-19T09:53:49;1.80;;;0.73;;
17917;SDS011;9084;50.956;3.106;2022-08-19T09:56:19;1.23;;;0.70;;
17917;SDS011;9084;50.956;3.106;2022-08-19T09:58:48;1.90;;;0.85;;
17917;SDS011;9084;50.956;3.106;2022-08-19T10:01:24;0.68;;;0.50;;
17917;SDS011;9084;50.956;3.106;2022-08-19T10:03:53;4.03;;;0.88;;
17917;SDS011;9084;50.956;3.106;2022-08-19T10:06:24;2.03;;;0.80;;
17917;SDS011;9084;50.956;3.106;2022-08-19T10:08:53;2.53;;;0.90;;
17917;SDS011;9084;50.956;3.106;2022-08-19T10:11:24;3.30;;;0.70;;
17917;SDS011;9084;50.956;3.106;2022-08-19T10:13:51;1.25;;;0.80;;
17917;SDS011;9084;50.956;3.106;2022-08-19T10:16:20;0.60;;;0.50;;
17917;SDS011;9084;50.956;3.106;2022-08-19T10:18:53;1.92;;;0.75;;
17917;SDS011;9084;50.956;3.106;2022-08-19T10:21:23;0.95;;;0.77;;
17917;SDS011;9084;50.956;3.106;2022-08-19T10:23:52;1.30;;;0.68;;
17917;SDS011;9084;50.956;3.106;2022-08-19T10:26:22;1.15;;;0.70;;
17917;SDS011;9084;50.956;3.106;2022-08-19T10:28:57;1.02;;;0.68;;
17917;SDS011;9084;50.956;3.106;2022-08-19T10:31:24;0.93;;;0.50;;
17917;SDS011;9084;50.956;3.106;2022-08-19T10:33:53;0.80;;;0.50;;
17917;SDS011;9084;50.956;3.106;2022-08-19T10:36:23;0.80;;;0.50;;
17917;SDS011;9084;50.956;3.106;2022-08-19T10:38:54;1.88;;;0.60;;
17917;SDS011;9084;50.956;3.106;2022-08-19T10:41:25;0.77;;;0.50;;
17917;SDS011;9084;50.956;3.106;2022-08-19T10:43:58;0.60;;;0.60;;
17917;SDS011;9084;50.956;3.106;2022-08-19T10:46:28;1.08;;;0.70;;
17917;SDS011;9084;50.956;3.106;2022-08-19T10:49:00;1.50;;;0.63;;
17917;SDS011;9084;50.956;3.106;2022-08-19T10:51:26;0.90;;;0.50;;
17917;SDS011;9084;50.956;3.106;2022-08-19T10:54:13;0.80;;;0.60;;
17917;SDS011;9084;50.956;3.106;2022-08-19T10:56:40;1.30;;;0.60;;
17917;SDS011;9084;50.956;3.106;2022-08-19T10:59:22;0.73;;;0.50;;
17917;SDS011;9084;50.956;3.106;2022-08-19T11:01:53;1.90;;;0.70;;
17917;SDS011;9084;50.956;3.106;2022-08-19T11:04:24;1.92;;;0.45;;
17917;SDS011;9084;50.956;3.106;2022-08-19T11:06:50;0.95;;;0.75;;
17917;SDS011;9084;50.956;3.106;2022-08-19T11:09:18;1.70;;;1.00;;
17917;SDS011;9084;50.956;3.106;2022-08-19T11:11:50;2.45;;;1.13;;
17917;SDS011;9084;50.956;3.106;2022-08-19T11:14:19;0.95;;;0.82;;
17917;SDS011;9084;50.956;3.106;2022-08-19T11:16:49;2.22;;;1.45;;
17917;SDS011;9084;50.956;3.106;2022-08-19T11:19:17;1.13;;;1.02;;
17917;SDS011;9084;50.956;3.106;2022-08-19T11:21:45;1.48;;;1.23;;
17917;SDS011;9084;50.956;3.106;2022-08-19T11:24:20;1.40;;;1.10;;
17917;SDS011;9084;50.956;3.106;2022-08-19T11:26:48;2.42;;;1.50;;
17917;SDS011;9084;50.956;3.106;2022-08-19T11:29:16;1.55;;;1.45;;
17917;SDS011;9084;50.956;3.106;2022-08-19T11:31:45;1.40;;;1.30;;
17917;SDS011;9084;50.956;3.106;2022-08-19T11:34:18;1.77;;;1.30;;
17917;SDS011;9084;50.956;3.106;2022-08-19T11:36:46;3.08;;;0.98;;
17917;SDS011;9084;50.956;3.106;2022-08-19T11:39:16;3.47;;;1.17;;
17917;SDS011;9084;50.956;3.106;2022-08-19T11:41:46;1.77;;;1.23;;
17917;SDS011;9084;50.956;3.106;2022-08-19T11:44:15;2.90;;;1.50;;
17917;SDS011;9084;50.956;3.106;2022-08-19T11:46:42;3.42;;;1.45;;
17917;SDS011;9084;50.956;3.106;2022-08-19T11:49:11;7.13;;;2.00;;
17917;SDS011;9084;50.956;3.106;2022-08-19T11:51:38;5.85;;;1.50;;
17917;SDS011;9084;50.956;3.106;2022-08-19T11:54:07;2.05;;;1.48;;
17917;SDS011;9084;50.956;3.106;2022-08-19T11:56:34;1.88;;;1.77;;
17917;SDS011;9084;50.956;3.106;2022-08-19T11:59:02;3.53;;;2.35;;
17917;SDS011;9084;50.956;3.106;2022-08-19T12:01:30;5.43;;;2.88;;
17917;SDS011;9084;50.956;3.106;2022-08-19T12:03:59;8.07;;;3.70;;
17917;SDS011;9084;50.956;3.106;2022-08-19T12:06:27;7.43;;;4.20;;
17917;SDS011;9084;50.956;3.106;2022-08-19T12:08:55;5.13;;;3.33;;
17917;SDS011;9084;50.956;3.106;2022-08-19T12:11:23;4.25;;;3.10;;
17917;SDS011;9084;50.956;3.106;2022-08-19T12:13:49;4.28;;;2.38;;
17917;SDS011;9084;50.956;3.106;2022-08-19T12:16:17;3.72;;;2.38;;
17917;SDS011;9084;50.956;3.106;2022-08-19T12:18:48;4.30;;;2.60;;
17917;SDS011;9084;50.956;3.106;2022-08-19T12:21:20;9.13;;;2.67;;
17917;SDS011;9084;50.956;3.106;2022-08-19T12:23:50;3.13;;;2.28;;
17917;SDS011;9084;50.956;3.106;2022-08-19T12:26:17;3.88;;;2.05;;
17917;SDS011;9084;50.956;3.106;2022-08-19T12:28:43;3.22;;;1.33;;
17917;SDS011;9084;50.956;3.106;2022-08-19T12:31:09;2.10;;;1.30;;
17917;SDS011;9084;50.956;3.106;2022-08-19T12:33:39;3.15;;;1.85;;
17917;SDS011;9084;50.956;3.106;2022-08-19T12:36:08;3.03;;;1.95;;
17917;SDS011;9084;50.956;3.106;2022-08-19T12:38:37;2.50;;;1.85;;
17917;SDS011;9084;50.956;3.106;2022-08-19T12:41:04;3.95;;;2.35;;
17917;SDS011;9084;50.956;3.106;2022-08-19T12:43:35;2.25;;;2.00;;
17917;SDS011;9084;50.956;3.106;2022-08-19T12:46:03;3.80;;;1.90;;
17917;SDS011;9084;50.956;3.106;2022-08-19T12:48:31;4.90;;;2.50;;
17917;SDS011;9084;50.956;3.106;2022-08-19T12:50:58;2.80;;;2.03;;
17917;SDS011;9084;50.956;3.106;2022-08-19T12:53:24;2.95;;;2.65;;
17917;SDS011;9084;50.956;3.106;2022-08-19T12:55:56;2.78;;;2.28;;
17917;SDS011;9084;50.956;3.106;2022-08-19T12:58:25;2.78;;;2.33;;
17917;SDS011;9084;50.956;3.106;2022-08-19T13:00:52;3.05;;;1.60;;
17917;SDS011;9084;50.956;3.106;2022-08-19T13:03:22;4.53;;;2.03;;
17917;SDS011;9084;50.956;3.106;2022-08-19T13:05:53;6.93;;;1.67;;
17917;SDS011;9084;50.956;3.106;2022-08-19T13:08:19;4.72;;;1.48;;
17917;SDS011;9084;50.956;3.106;2022-08-19T13:10:45;2.25;;;1.45;;
17917;SDS011;9084;50.956;3.106;2022-08-19T13:13:14;1.55;;;1.13;;
17917;SDS011;9084;50.956;3.106;2022-08-19T13:15:43;2.13;;;1.30;;
17917;SDS011;9084;50.956;3.106;2022-08-19T13:18:12;2.78;;;1.25;;
17917;SDS011;9084;50.956;3.106;2022-08-19T13:20:39;2.08;;;1.20;;
17917;SDS011;9084;50.956;3.106;2022-08-19T13:23:06;1.75;;;0.90;;
17917;SDS011;9084;50.956;3.106;2022-08-19T13:25:37;2.58;;;1.10;;
17917;SDS011;9084;50.956;3.106;2022-08-19T13:28:02;2.92;;;1.10;;
17917;SDS011;9084;50.956;3.106;2022-08-19T13:30:28;2.92;;;1.23;;
17917;SDS011;9084;50.956;3.106;2022-08-19T13:33:12;1.98;;;1.20;;
17917;SDS011;9084;50.956;3.106;2022-08-19T13:38:16;3.08;;;1.00;;
17917;SDS011;9084;50.956;3.106;2022-08-19T13:40:45;2.47;;;1.20;;
17917;SDS011;9084;50.956;3.106;2022-08-19T13:43:14;2.90;;;1.08;;
17917;SDS011;9084;50.956;3.106;2022-08-19T13:45:40;2.70;;;1.08;;
17917;SDS011;9084;50.956;3.106;2022-08-19T13:48:08;2.25;;;1.10;;
17917;SDS011;9084;50.956;3.106;2022-08-19T13:50:38;2.20;;;1.05;;
17917;SDS011;9084;50.956;3.106;2022-08-19T13:53:07;3.30;;;1.00;;
17917;SDS011;9084;50.956;3.106;2022-08-19T13:55:36;1.83;;;0.90;;
17917;SDS011;9084;50.956;3.106;2022-08-19T13:58:03;1.27;;;1.00;;
17917;SDS011;9084;50.956;3.106;2022-08-19T14:00:36;2.38;;;1.00;;
17917;SDS011;9084;50.956;3.106;2022-08-19T14:03:06;1.77;;;0.80;;
17917;SDS011;9084;50.956;3.106;2022-08-19T14:05:32;1.98;;;0.80;;
17917;SDS011;9084;50.956;3.106;2022-08-19T14:08:03;1.20;;;0.55;;
17917;SDS011;9084;50.956;3.106;2022-08-19T14:10:34;3.08;;;0.75;;
17917;SDS011;9084;50.956;3.106;2022-08-19T14:13:01;1.88;;;0.90;;
17917;SDS011;9084;50.956;3.106;2022-08-19T14:15:28;1.30;;;0.77;;
17917;SDS011;9084;50.956;3.106;2022-08-19T14:17:55;2.20;;;1.02;;
17917;SDS011;9084;50.956;3.106;2022-08-19T14:20:24;2.13;;;0.60;;
17917;SDS011;9084;50.956;3.106;2022-08-19T14:22:50;1.42;;;0.77;;
17917;SDS011;9084;50.956;3.106;2022-08-19T14:25:18;1.10;;;0.50;;
17917;SDS011;9084;50.956;3.106;2022-08-19T14:27:48;1.17;;;0.70;;
17917;SDS011;9084;50.956;3.106;2022-08-19T14:30:18;2.50;;;0.80;;
17917;SDS011;9084;50.956;3.106;2022-08-19T14:32:46;1.63;;;0.90;;
17917;SDS011;9084;50.956;3.106;2022-08-19T14:35:15;1.58;;;0.88;;
17917;SDS011;9084;50.956;3.106;2022-08-19T14:37:42;2.22;;;0.70;;
17917;SDS011;9084;50.956;3.106;2022-08-19T14:40:11;4.00;;;0.80;;
17917;SDS011;9084;50.956;3.106;2022-08-19T14:42:39;2.50;;;1.00;;
17917;SDS011;9084;50.956;3.106;2022-08-19T14:45:09;2.60;;;0.98;;
17917;SDS011;9084;50.956;3.106;2022-08-19T14:47:36;1.52;;;0.93;;
17917;SDS011;9084;50.956;3.106;2022-08-19T14:50:03;3.13;;;0.90;;
17917;SDS011;9084;50.956;3.106;2022-08-19T14:52:33;2.08;;;1.00;;
17917;SDS011;9084;50.956;3.106;2022-08-19T14:54:59;1.67;;;1.05;;
17917;SDS011;9084;50.956;3.106;2022-08-19T14:57:26;1.30;;;1.00;;
17917;SDS011;9084;50.956;3.106;2022-08-19T14:59:52;1.10;;;1.00;;
17917;SDS011;9084;50.956;3.106;2022-08-19T15:02:21;2.00;;;0.80;;
17917;SDS011;9084;50.956;3.106;2022-08-19T15:04:53;3.05;;;0.90;;
17917;SDS011;9084;50.956;3.106;2022-08-19T15:07:20;1.08;;;0.75;;
17917;SDS011;9084;50.956;3.106;2022-08-19T15:09:49;1.33;;;0.98;;
17917;SDS011;9084;50.956;3.106;2022-08-19T15:12:15;3.10;;;0.90;;
17917;SDS011;9084;50.956;3.106;2022-08-19T15:14:41;2.78;;;1.20;;
17917;SDS011;9084;50.956;3.106;2022-08-19T15:17:15;1.40;;;0.85;;
17917;SDS011;9084;50.956;3.106;2022-08-19T15:19:42;2.38;;;0.90;;
17917;SDS011;9084;50.956;3.106;2022-08-19T15:22:08;3.03;;;1.17;;